createdAt,value
2023-04-15T00:01:32.953Z,2.17
2023-04-15T00:03:14.495Z,1.95
2023-04-15T00:04:56.029Z,2.00
2023-04-15T00:06:37.347Z,1.70
2023-04-15T00:08:18.671Z,1.75
2023-04-15T00:10:00.008Z,2.17
2023-04-15T00:11:41.310Z,2.29
2023-04-15T00:13:22.588Z,2.48
2023-04-15T00:15:03.936Z,2.74
2023-04-15T00:16:45.286Z,3.09
2023-04-15T00:18:26.576Z,3.07
2023-04-15T00:20:07.895Z,3.20
2023-04-15T00:21:49.198Z,3.23
2023-04-15T00:23:30.556Z,3.43
2023-04-15T00:25:11.903Z,3.33
2023-04-15T00:26:53.232Z,3.23
2023-04-15T00:28:34.498Z,3.32
2023-04-15T00:30:15.771Z,3.57
2023-04-15T00:31:57.082Z,3.62
2023-04-15T00:33:38.354Z,3.50
2023-04-15T00:35:19.667Z,3.31
2023-04-15T00:37:01.000Z,3.27
2023-04-15T00:38:42.307Z,3.60
2023-04-15T00:40:23.569Z,3.91
2023-04-15T00:42:04.867Z,4.12
2023-04-15T00:43:46.165Z,4.32
2023-04-15T00:45:27.454Z,4.47
2023-04-15T00:47:08.791Z,4.64
2023-04-15T00:48:50.075Z,4.42
2023-04-15T00:50:31.358Z,4.58
2023-04-15T00:52:12.686Z,4.59
2023-04-15T00:53:53.936Z,4.64
2023-04-15T00:55:35.220Z,4.32
2023-04-15T00:57:16.536Z,4.18
2023-04-15T00:58:57.887Z,3.88
2023-04-15T01:00:39.246Z,3.80
2023-04-15T01:02:20.590Z,3.46
2023-04-15T01:04:02.102Z,3.08
2023-04-15T01:05:43.552Z,2.88
2023-04-15T01:07:24.851Z,2.32
2023-04-15T01:09:06.108Z,2.11
2023-04-15T01:10:47.405Z,1.76
2023-04-15T01:12:28.706Z,1.60
2023-04-15T01:14:09.992Z,1.37
2023-04-15T01:15:51.338Z,1.06
2023-04-15T01:17:32.717Z,0.88
2023-04-15T01:19:14.026Z,0.90
2023-04-15T01:20:55.352Z,0.96
2023-04-15T01:22:36.619Z,0.91
2023-04-15T01:24:17.882Z,0.72
2023-04-15T01:25:59.241Z,0.66
2023-04-15T01:27:40.576Z,0.49
2023-04-15T01:29:21.849Z,0.75
2023-04-15T01:31:03.131Z,0.77
2023-04-15T01:32:44.455Z,1.02
2023-04-15T01:34:25.789Z,1.40
2023-04-15T01:36:07.096Z,1.46
2023-04-15T01:37:48.405Z,1.89
2023-04-15T01:39:29.702Z,2.34
2023-04-15T01:41:10.998Z,2.80
2023-04-15T01:42:52.311Z,3.17
2023-04-15T01:44:33.591Z,3.36
2023-04-15T01:46:14.895Z,3.17
2023-04-15T01:47:56.379Z,3.15
2023-04-15T01:49:37.688Z,3.27
2023-04-15T01:51:18.987Z,3.34
2023-04-15T01:53:00.273Z,3.51
2023-04-15T01:54:41.557Z,3.72
2023-04-15T01:56:22.860Z,3.80
2023-04-15T01:58:04.185Z,3.42
2023-04-15T01:59:45.536Z,3.13
2023-04-15T02:01:26.998Z,2.80
2023-04-15T02:03:08.424Z,2.87
2023-04-15T02:04:49.759Z,3.09
2023-04-15T02:06:31.030Z,3.49
2023-04-15T02:08:12.295Z,3.47
2023-04-15T02:09:53.581Z,3.43
2023-04-15T02:11:34.908Z,2.80
2023-04-15T02:13:16.217Z,2.32
2023-04-15T02:14:57.511Z,2.47
2023-04-15T02:16:38.890Z,2.55
2023-04-15T02:18:20.261Z,2.64
2023-04-15T02:20:01.552Z,2.97
2023-04-15T02:21:42.984Z,2.94
2023-04-15T02:23:24.259Z,3.38
2023-04-15T02:25:05.580Z,3.75
2023-04-15T02:26:46.892Z,3.73
2023-04-15T02:28:28.182Z,4.08
2023-04-15T02:30:09.521Z,3.86
2023-04-15T02:31:50.870Z,3.95
2023-04-15T02:33:32.266Z,4.14
2023-04-15T02:35:13.590Z,4.17
2023-04-15T02:36:54.952Z,4.06
2023-04-15T02:38:36.213Z,4.25
2023-04-15T02:40:17.548Z,4.15
2023-04-15T02:41:58.906Z,3.67
2023-04-15T02:43:40.186Z,3.29
2023-04-15T02:45:21.438Z,3.15
2023-04-15T02:47:02.712Z,3.16
2023-04-15T02:48:44.030Z,3.33
2023-04-15T02:50:25.310Z,3.62
2023-04-15T02:52:06.654Z,3.79
2023-04-15T02:53:47.999Z,4.06
2023-04-15T02:55:29.294Z,3.70
2023-04-15T02:57:10.602Z,3.62
2023-04-15T02:58:51.908Z,3.44
2023-04-15T03:00:33.164Z,3.58
2023-04-15T03:02:14.535Z,2.94
2023-04-15T03:03:56.078Z,2.59
2023-04-15T03:05:37.397Z,3.00
2023-04-15T03:07:18.662Z,2.95
2023-04-15T03:09:00.224Z,2.90
2023-04-15T03:10:41.650Z,3.01
2023-04-15T03:12:22.915Z,3.28
2023-04-15T03:14:04.244Z,3.55
2023-04-15T03:15:45.561Z,3.84
2023-04-15T03:17:26.895Z,4.08
2023-04-15T03:19:08.187Z,4.17
2023-04-15T03:20:49.537Z,4.25
2023-04-15T03:22:30.826Z,4.42
2023-04-15T03:24:12.128Z,4.58
2023-04-15T03:25:53.437Z,4.21
2023-04-15T03:27:34.718Z,4.25
2023-04-15T03:29:16.023Z,4.21
2023-04-15T03:30:57.421Z,4.14
2023-04-15T03:32:38.740Z,4.11
2023-04-15T03:34:20.130Z,4.09
2023-04-15T03:36:01.467Z,3.89
2023-04-15T03:37:42.738Z,3.65
2023-04-15T03:39:24.022Z,3.95
2023-04-15T03:41:05.319Z,3.98
2023-04-15T03:42:46.614Z,4.10
2023-04-15T03:44:27.921Z,3.97
2023-04-15T03:46:09.296Z,3.22
2023-04-15T03:47:50.634Z,2.86
2023-04-15T03:49:31.971Z,2.75
2023-04-15T03:51:13.253Z,3.28
2023-04-15T03:52:54.520Z,3.63
2023-04-15T03:54:35.827Z,3.72
2023-04-15T03:56:17.105Z,3.80
2023-04-15T03:57:58.391Z,4.03
2023-04-15T03:59:39.682Z,4.01
2023-04-15T04:01:20.987Z,3.94
2023-04-15T04:03:02.499Z,4.03
2023-04-15T04:04:43.913Z,3.97
2023-04-15T04:06:25.253Z,4.19
2023-04-15T04:08:06.572Z,4.43
2023-04-15T04:09:47.852Z,4.50
2023-04-15T04:11:29.108Z,4.68
2023-04-15T04:13:10.436Z,4.79
2023-04-15T04:14:51.772Z,4.56
2023-04-15T04:16:33.187Z,4.16
2023-04-15T04:18:14.557Z,4.10
2023-04-15T04:19:55.871Z,4.06
2023-04-15T04:21:37.185Z,4.01
2023-04-15T04:23:18.505Z,3.59
2023-04-15T04:24:59.795Z,3.29
2023-04-15T04:26:41.076Z,3.03
2023-04-15T04:28:22.341Z,2.81
2023-04-15T04:30:03.612Z,2.33
2023-04-15T04:31:44.950Z,2.48
2023-04-15T04:33:26.284Z,2.75
2023-04-15T04:35:07.584Z,3.27
2023-04-15T04:36:48.981Z,3.64
2023-04-15T04:38:30.244Z,3.57
2023-04-15T04:40:11.514Z,3.30
2023-04-15T04:41:52.872Z,2.73
2023-04-15T04:43:34.160Z,2.14
2023-04-15T04:45:15.502Z,2.16
2023-04-15T04:46:56.873Z,2.51
2023-04-15T04:48:38.204Z,2.87
2023-04-15T04:50:19.480Z,2.96
2023-04-15T04:52:00.815Z,2.87
2023-04-15T04:53:42.128Z,3.07
2023-04-15T04:55:23.421Z,3.19
2023-04-15T04:57:04.698Z,3.28
2023-04-15T04:58:46.012Z,3.54
2023-04-15T05:00:27.307Z,3.59
2023-04-15T05:02:08.694Z,3.80
2023-04-15T05:03:50.144Z,3.98
2023-04-15T05:05:31.496Z,3.91
2023-04-15T05:07:12.812Z,3.89
2023-04-15T05:08:54.114Z,3.89
2023-04-15T05:10:35.409Z,3.95
2023-04-15T05:12:16.734Z,3.38
2023-04-15T05:13:58.007Z,2.92
2023-04-15T05:15:39.325Z,3.33
2023-04-15T05:17:20.625Z,3.49
2023-04-15T05:19:02.111Z,3.49
2023-04-15T05:20:43.646Z,3.09
2023-04-15T05:22:24.938Z,2.87
2023-04-15T05:24:06.228Z,2.35
2023-04-15T05:25:47.513Z,2.59
2023-04-15T05:27:28.852Z,2.62
2023-04-15T05:29:10.123Z,2.71
2023-04-15T05:30:51.412Z,2.38
2023-04-15T05:32:32.764Z,3.00
2023-04-15T05:34:14.106Z,2.98
2023-04-15T05:35:55.394Z,1.71
2023-04-15T05:37:36.748Z,1.81
2023-04-15T05:39:18.036Z,1.51
2023-04-15T05:40:59.295Z,1.45
2023-04-15T05:42:40.608Z,1.82
2023-04-15T05:44:21.858Z,2.28
2023-04-15T05:46:03.209Z,2.79
2023-04-15T05:47:44.683Z,3.07
2023-04-15T05:49:26.032Z,3.39
2023-04-15T05:51:07.304Z,3.77
2023-04-15T05:52:48.621Z,3.97
2023-04-15T05:54:29.929Z,4.17
2023-04-15T05:56:11.232Z,4.44
2023-04-15T05:57:52.557Z,4.53
2023-04-15T05:59:33.871Z,3.72
2023-04-15T06:01:15.182Z,3.41
2023-04-15T06:02:56.555Z,3.29
2023-04-15T06:04:38.041Z,3.51
2023-04-15T06:06:19.425Z,3.72
2023-04-15T06:08:00.720Z,4.11
2023-04-15T06:09:42.002Z,4.33
2023-04-15T06:11:23.326Z,4.22
2023-04-15T06:13:04.599Z,4.06
2023-04-15T06:14:45.947Z,4.37
2023-04-15T06:16:27.265Z,4.40
2023-04-15T06:18:08.637Z,4.30
2023-04-15T06:19:50.027Z,4.29
2023-04-15T06:21:31.351Z,4.44
2023-04-15T06:23:12.673Z,4.78
2023-04-15T06:24:53.955Z,4.40
2023-04-15T06:26:35.257Z,4.25
2023-04-15T06:28:16.574Z,4.22
2023-04-15T06:29:58.044Z,4.06
2023-04-15T06:31:39.381Z,3.89
2023-04-15T06:33:20.724Z,3.79
2023-04-15T06:35:01.991Z,3.40
2023-04-15T06:36:43.453Z,3.34
2023-04-15T06:38:24.784Z,3.24
2023-04-15T06:40:06.076Z,3.82
2023-04-15T06:41:47.352Z,4.23
2023-04-15T06:43:28.633Z,4.20
2023-04-15T06:45:09.969Z,4.22
2023-04-15T06:46:51.254Z,4.19
2023-04-15T06:48:32.589Z,4.56
2023-04-15T06:50:13.911Z,4.79
2023-04-15T06:51:55.271Z,4.74
2023-04-15T06:53:36.556Z,5.10
2023-04-15T06:55:17.831Z,5.36
2023-04-15T06:56:59.105Z,5.47
2023-04-15T06:58:40.411Z,5.12
2023-04-15T07:00:21.707Z,5.50
2023-04-15T07:02:03.035Z,5.70
2023-04-15T07:03:44.980Z,5.85
2023-04-15T07:05:26.638Z,5.86
2023-04-15T07:07:07.962Z,5.93
2023-04-15T07:08:49.270Z,5.95
2023-04-15T07:10:30.571Z,6.04
2023-04-15T07:12:11.891Z,6.08
2023-04-15T07:13:53.223Z,6.13
2023-04-15T07:15:34.554Z,6.13
2023-04-15T07:17:15.867Z,6.16
2023-04-15T07:18:57.174Z,6.10
2023-04-15T07:20:38.504Z,5.95
2023-04-15T07:22:19.878Z,6.03
2023-04-15T07:24:01.162Z,6.31
2023-04-15T07:25:42.453Z,6.49
2023-04-15T07:27:23.732Z,6.51
2023-04-15T07:29:04.992Z,6.79
2023-04-15T07:30:46.365Z,6.63
2023-04-15T07:32:27.737Z,6.76
2023-04-15T07:34:09.072Z,6.86
2023-04-15T07:35:50.338Z,6.69
2023-04-15T07:37:31.632Z,6.82
2023-04-15T07:39:12.927Z,7.06
2023-04-15T07:40:54.232Z,7.38
2023-04-15T07:42:35.641Z,7.52
2023-04-15T07:44:16.963Z,7.42
2023-04-15T07:45:58.328Z,7.13
2023-04-15T07:47:39.676Z,7.16
2023-04-15T07:49:20.939Z,7.18
2023-04-15T07:51:02.248Z,7.34
2023-04-15T07:52:43.543Z,7.53
2023-04-15T07:54:24.835Z,7.87
2023-04-15T07:56:06.125Z,7.99
2023-04-15T07:57:47.462Z,8.18
2023-04-15T07:59:28.780Z,8.26
2023-04-15T08:01:10.071Z,8.50
2023-04-15T08:02:51.527Z,8.16
2023-04-15T08:04:33.019Z,8.20
2023-04-15T08:06:14.394Z,7.92
2023-04-15T08:07:55.824Z,7.90
2023-04-15T08:09:37.325Z,7.99
2023-04-15T08:11:18.712Z,8.03
2023-04-15T08:13:00.164Z,7.88
2023-04-15T08:14:41.439Z,6.55
2023-04-15T08:16:22.872Z,6.77
2023-04-15T08:18:04.457Z,7.12
2023-04-15T08:19:45.962Z,7.15
2023-04-15T08:21:27.239Z,7.38
2023-04-15T08:23:08.555Z,7.74
2023-04-15T08:24:49.867Z,7.92
2023-04-15T08:26:31.541Z,8.21
2023-04-15T08:28:13.056Z,8.41
2023-04-15T08:29:54.366Z,7.45
2023-04-15T08:31:35.648Z,7.87
2023-04-15T08:33:17.364Z,7.82
2023-04-15T08:34:58.868Z,7.94
2023-04-15T08:36:40.156Z,7.96
2023-04-15T08:38:21.455Z,7.88
2023-04-15T08:40:02.750Z,7.81
2023-04-15T08:41:44.038Z,7.90
2023-04-15T08:43:25.324Z,7.69
2023-04-15T08:45:06.670Z,7.56
2023-04-15T08:46:48.098Z,7.24
2023-04-15T08:48:29.484Z,7.57
2023-04-15T08:50:10.873Z,7.69
2023-04-15T08:51:52.179Z,7.62
2023-04-15T08:53:33.477Z,7.86
2023-04-15T08:55:14.770Z,7.15
2023-04-15T08:56:56.098Z,6.30
2023-04-15T08:58:37.476Z,5.63
2023-04-15T09:00:18.777Z,5.59
2023-04-15T09:02:00.200Z,5.28
2023-04-15T09:03:41.619Z,4.74
2023-04-15T09:05:22.981Z,4.81
2023-04-15T09:07:04.299Z,4.67
2023-04-15T09:08:45.623Z,4.06
2023-04-15T09:10:26.927Z,4.58
2023-04-15T09:12:08.435Z,4.61
2023-04-15T09:13:49.755Z,4.47
2023-04-15T09:15:31.049Z,4.78
2023-04-15T09:17:12.360Z,4.98
2023-04-15T09:18:53.692Z,5.15
2023-04-15T09:20:35.040Z,4.79
2023-04-15T09:22:16.364Z,5.04
2023-04-15T09:23:57.680Z,5.06
2023-04-15T09:25:38.983Z,5.31
2023-04-15T09:27:20.257Z,5.47
2023-04-15T09:29:01.572Z,5.17
2023-04-15T09:30:42.880Z,4.88
2023-04-15T09:32:24.217Z,4.51
2023-04-15T09:34:05.539Z,4.70
2023-04-15T09:35:46.866Z,4.78
2023-04-15T09:37:32.406Z,4.59
2023-04-15T09:39:14.000Z,5.01
2023-04-15T09:40:55.317Z,5.27
2023-04-15T09:42:36.649Z,5.34
2023-04-15T09:44:17.913Z,5.15
2023-04-15T09:45:59.223Z,5.20
2023-04-15T09:47:40.652Z,5.21
2023-04-15T09:49:21.999Z,5.07
2023-04-15T09:51:03.295Z,5.38
2023-04-15T09:52:44.610Z,5.38
2023-04-15T09:54:25.940Z,5.53
2023-04-15T09:56:07.247Z,5.67
2023-04-15T09:57:48.619Z,5.70
2023-04-15T09:59:30.012Z,5.97
2023-04-15T10:01:11.332Z,6.07
2023-04-15T10:02:52.871Z,6.04
2023-04-15T10:04:34.337Z,6.11
2023-04-15T10:06:15.636Z,6.32
2023-04-15T10:07:56.964Z,5.93
2023-04-15T10:09:38.270Z,5.81
2023-04-15T10:11:19.553Z,5.53
2023-04-15T10:13:00.872Z,5.18
2023-04-15T10:14:42.133Z,5.27
2023-04-15T10:16:23.468Z,5.11
2023-04-15T10:18:04.942Z,5.45
2023-04-15T10:19:46.279Z,5.57
2023-04-15T10:21:27.540Z,5.65
2023-04-15T10:23:10.984Z,6.18
2023-04-15T10:24:53.480Z,6.09
2023-04-15T10:26:34.780Z,6.46
2023-04-15T10:28:16.088Z,5.92
2023-04-15T10:29:57.421Z,6.27
2023-04-15T10:31:38.719Z,6.28
2023-04-15T10:33:20.041Z,6.31
2023-04-15T10:35:01.353Z,6.38
2023-04-15T10:36:42.636Z,6.17
2023-04-15T10:38:23.924Z,5.75
2023-04-15T10:40:05.213Z,6.06
2023-04-15T10:41:46.482Z,6.14
2023-04-15T10:43:27.762Z,6.31
2023-04-15T10:45:09.054Z,6.21
2023-04-15T10:46:50.465Z,6.37
2023-04-15T10:48:31.808Z,6.46
2023-04-15T10:50:13.127Z,6.98
2023-04-15T10:51:54.456Z,6.60
2023-04-15T10:53:35.716Z,7.21
2023-04-15T10:55:16.999Z,7.03
2023-04-15T10:56:58.293Z,6.86
2023-04-15T10:58:39.569Z,6.88
2023-04-15T11:00:20.858Z,6.41
2023-04-15T11:02:02.250Z,6.64
2023-04-15T11:03:43.875Z,6.51
2023-04-15T11:05:25.420Z,6.51
2023-04-15T11:07:06.715Z,6.48
2023-04-15T11:08:48.122Z,6.64
2023-04-15T11:10:29.459Z,6.49
2023-04-15T11:12:10.788Z,6.59
2023-04-15T11:13:52.111Z,6.02
2023-04-15T11:15:33.407Z,6.29
2023-04-15T11:17:14.665Z,6.60
2023-04-15T11:18:56.007Z,7.20
2023-04-15T11:20:37.349Z,6.85
2023-04-15T11:22:18.636Z,6.69
2023-04-15T11:24:00.771Z,6.30
2023-04-15T11:25:43.913Z,6.20
2023-04-15T11:27:25.479Z,6.57
2023-04-15T11:29:06.778Z,6.68
2023-04-15T11:30:48.061Z,6.43
2023-04-15T11:32:29.435Z,6.43
2023-04-15T11:34:10.817Z,7.19
2023-04-15T11:35:52.211Z,6.26
2023-04-15T11:37:33.495Z,6.45
2023-04-15T11:39:14.811Z,6.62
2023-04-15T11:40:56.119Z,6.70
2023-04-15T11:42:48.724Z,6.58
2023-04-15T11:44:31.121Z,6.82
2023-04-15T11:46:12.466Z,6.77
2023-04-15T11:47:53.767Z,6.52
2023-04-15T11:49:35.062Z,5.84
2023-04-15T11:51:16.415Z,5.82
2023-04-15T11:52:57.685Z,5.85
2023-04-15T11:54:38.999Z,5.46
2023-04-15T11:56:20.291Z,5.16
2023-04-15T11:58:01.581Z,5.52
2023-04-15T11:59:45.520Z,5.77
2023-04-15T12:01:27.396Z,5.62
2023-04-15T12:03:08.815Z,5.32
2023-04-15T12:04:50.372Z,4.44
2023-04-15T12:06:31.697Z,4.76
2023-04-15T12:08:12.982Z,5.12
2023-04-15T12:09:54.254Z,4.91
2023-04-15T12:11:35.555Z,4.52
2023-04-15T12:13:16.865Z,4.61
2023-04-15T12:14:58.164Z,4.64
2023-04-15T12:16:48.015Z,4.60
2023-04-15T12:18:30.959Z,4.67
2023-04-15T12:20:13.369Z,4.38
2023-04-15T12:21:54.662Z,4.17
2023-04-15T12:23:35.935Z,4.04
2023-04-15T12:25:17.201Z,4.61
2023-04-15T12:26:58.579Z,4.56
2023-04-15T12:28:39.836Z,4.55
2023-04-15T12:30:21.231Z,5.17
2023-04-15T12:32:02.531Z,4.83
2023-04-15T12:33:43.907Z,4.79
2023-04-15T12:35:25.202Z,4.63
2023-04-15T12:37:06.512Z,5.01
2023-04-15T12:38:47.832Z,4.43
2023-04-15T12:40:29.155Z,3.78
2023-04-15T12:42:10.467Z,3.62
2023-04-15T12:43:51.740Z,3.86
2023-04-15T12:45:32.988Z,4.11
2023-04-15T12:47:14.324Z,3.59
2023-04-15T12:48:55.614Z,3.70
2023-04-15T12:50:36.889Z,3.32
2023-04-15T12:52:18.218Z,3.55
2023-04-15T12:53:59.512Z,3.33
2023-04-15T12:55:40.819Z,3.08
2023-04-15T12:57:22.154Z,3.14
2023-04-15T12:59:03.449Z,3.27
2023-04-15T13:00:44.770Z,3.28
2023-04-15T13:02:26.227Z,3.45
2023-04-15T13:04:07.944Z,3.14
2023-04-15T13:05:49.679Z,3.00
2023-04-15T13:07:31.059Z,3.27
2023-04-15T13:09:12.437Z,3.25
2023-04-15T13:10:53.759Z,2.94
2023-04-15T13:12:35.038Z,3.57
2023-04-15T13:14:16.323Z,3.67
2023-04-15T13:15:57.670Z,4.08
2023-04-15T13:17:39.013Z,3.45
2023-04-15T13:19:20.330Z,3.72
2023-04-15T13:21:02.219Z,3.52
2023-04-15T13:22:44.577Z,3.86
2023-04-15T13:24:25.892Z,3.38
2023-04-15T13:26:07.192Z,3.64
2023-04-15T13:27:48.476Z,4.09
2023-04-15T13:29:29.728Z,4.00
2023-04-15T13:31:11.071Z,4.35
2023-04-15T13:32:52.428Z,4.53
2023-04-15T13:34:33.743Z,4.32
2023-04-15T13:36:15.020Z,4.26
2023-04-15T13:37:56.308Z,4.70
2023-04-15T13:39:37.600Z,4.59
2023-04-15T13:41:18.940Z,4.69
2023-04-15T13:43:00.272Z,5.24
2023-04-15T13:44:41.559Z,5.47
2023-04-15T13:46:22.921Z,5.45
2023-04-15T13:48:04.277Z,6.05
2023-04-15T13:49:45.542Z,5.82
2023-04-15T13:51:26.816Z,6.48
2023-04-15T13:53:08.226Z,6.86
2023-04-15T13:54:49.555Z,6.47
2023-04-15T13:56:50.836Z,6.73
2023-04-15T13:58:32.122Z,6.91
2023-04-15T14:00:13.427Z,7.11
2023-04-15T14:01:54.828Z,6.95
2023-04-15T14:03:36.757Z,6.73
2023-04-15T14:05:18.431Z,6.32
2023-04-15T14:06:59.747Z,6.17
2023-04-15T14:08:41.074Z,6.66
2023-04-15T14:10:22.377Z,6.79
2023-04-15T14:12:03.643Z,6.31
2023-04-15T14:13:44.924Z,5.56
2023-04-15T14:15:26.253Z,5.15
2023-04-15T14:17:07.550Z,5.30
2023-04-15T14:18:48.870Z,4.99
2023-04-15T14:20:30.169Z,5.00
2023-04-15T14:22:11.444Z,5.57
2023-04-15T14:23:52.709Z,5.81
2023-04-15T14:25:34.368Z,5.92
2023-04-15T14:27:15.789Z,6.01
2023-04-15T14:28:57.110Z,5.89
2023-04-15T14:30:38.456Z,5.01
2023-04-15T14:32:19.876Z,4.86
2023-04-15T14:34:01.234Z,4.84
2023-04-15T14:35:42.543Z,4.33
2023-04-15T14:37:23.850Z,4.70
2023-04-15T14:39:05.707Z,4.24
2023-04-15T14:40:47.301Z,4.73
2023-04-15T14:42:28.615Z,4.86
2023-04-15T14:44:10.319Z,4.40
2023-04-15T14:45:51.675Z,4.35
2023-04-15T14:47:33.022Z,4.06
2023-04-15T14:49:14.368Z,4.36
2023-04-15T14:50:55.691Z,4.54
2023-04-15T14:52:36.978Z,4.70
2023-04-15T14:54:18.738Z,5.06
2023-04-15T14:56:00.703Z,4.87
2023-04-15T14:57:41.962Z,5.22
2023-04-15T14:59:23.260Z,5.21
2023-04-15T15:01:04.570Z,5.58
2023-04-15T15:02:46.054Z,5.40
2023-04-15T15:04:27.524Z,5.81
2023-04-15T15:06:08.964Z,5.79
2023-04-15T15:07:50.237Z,4.99
2023-04-15T15:09:32.826Z,5.06
2023-04-15T15:11:15.205Z,5.33
2023-04-15T15:12:56.546Z,5.56
2023-04-15T15:14:37.836Z,5.15
2023-04-15T15:16:19.173Z,4.80
2023-04-15T15:18:00.618Z,5.41
2023-04-15T15:19:41.911Z,4.83
2023-04-15T15:21:23.244Z,4.59
2023-04-15T15:23:04.532Z,4.35
2023-04-15T15:24:45.800Z,4.79
2023-04-15T15:26:27.061Z,4.47
2023-04-15T15:28:08.385Z,4.42
2023-04-15T15:29:49.674Z,4.46
2023-04-15T15:31:31.039Z,4.82
2023-04-15T15:33:12.388Z,5.06
2023-04-15T15:34:53.733Z,5.22
2023-04-15T15:36:34.993Z,5.21
2023-04-15T15:38:16.292Z,4.69
2023-04-15T15:39:57.571Z,4.80
2023-04-15T15:41:38.872Z,4.85
2023-04-15T15:43:20.176Z,4.87
2023-04-15T15:45:01.453Z,5.28
2023-04-15T15:46:43.062Z,5.24
2023-04-15T15:48:24.430Z,5.18
2023-04-15T15:50:06.392Z,5.10
2023-04-15T15:51:47.831Z,5.02
2023-04-15T15:53:29.151Z,4.93
2023-04-15T15:55:10.488Z,5.23
2023-04-15T15:56:51.844Z,5.33
2023-04-15T15:58:33.144Z,5.40
2023-04-15T16:00:14.487Z,5.63
2023-04-15T16:01:55.908Z,5.73
2023-04-15T16:03:37.532Z,6.01
2023-04-15T16:05:19.063Z,5.83
2023-04-15T16:07:00.402Z,5.56
2023-04-15T16:08:41.709Z,5.59
2023-04-15T16:10:23.254Z,5.52
2023-04-15T16:12:04.890Z,5.54
2023-04-15T16:13:46.183Z,5.34
2023-04-15T16:15:27.494Z,5.36
2023-04-15T16:17:08.793Z,5.20
2023-04-15T16:18:50.148Z,5.34
2023-04-15T16:20:31.431Z,4.91
2023-04-15T16:22:12.742Z,4.43
2023-04-15T16:23:53.992Z,4.58
2023-04-15T16:25:35.301Z,4.47
2023-04-15T16:27:16.602Z,4.47
2023-04-15T16:28:57.912Z,4.43
2023-04-15T16:30:39.248Z,4.53
2023-04-15T16:32:20.648Z,3.83
2023-04-15T16:34:02.003Z,4.25
2023-04-15T16:35:43.286Z,4.45
2023-04-15T16:37:24.569Z,4.37
2023-04-15T16:39:06.100Z,4.49
2023-04-15T16:40:47.668Z,4.33
2023-04-15T16:42:28.973Z,4.32
2023-04-15T16:44:10.288Z,4.17
2023-04-15T16:45:51.793Z,4.22
2023-04-15T16:47:33.201Z,4.28
2023-04-15T16:49:14.500Z,4.52
2023-04-15T16:50:55.793Z,4.52
2023-04-15T16:52:37.070Z,4.57
2023-04-15T16:54:18.365Z,4.62
2023-04-15T16:55:59.671Z,4.85
2023-04-15T16:58:01.573Z,5.00
2023-04-15T16:59:42.224Z,4.91
2023-04-15T17:01:23.554Z,4.28
2023-04-15T17:03:04.995Z,4.25
2023-04-15T17:04:46.368Z,4.17
2023-04-15T17:06:27.680Z,4.21
2023-04-15T17:08:09.002Z,4.25
2023-04-15T17:09:50.300Z,3.99
2023-04-15T17:11:31.586Z,4.03
2023-04-15T17:13:12.874Z,4.15
2023-04-15T17:14:54.154Z,4.42
2023-04-15T17:16:35.462Z,4.49
2023-04-15T17:18:16.726Z,4.45
2023-04-15T17:19:58.010Z,4.56
2023-04-15T17:21:39.343Z,4.30
2023-04-15T17:23:20.619Z,4.19
2023-04-15T17:25:01.913Z,4.34
2023-04-15T17:26:43.223Z,4.36
2023-04-15T17:28:24.515Z,4.40
2023-04-15T17:30:05.804Z,4.38
2023-04-15T17:31:47.140Z,4.58
2023-04-15T17:34:00.212Z,4.06
2023-04-15T17:35:29.680Z,3.87
2023-04-15T17:37:10.999Z,3.40
2023-04-15T17:38:52.273Z,3.59
2023-04-15T17:40:33.573Z,4.02
2023-04-15T17:42:14.865Z,4.11
2023-04-15T17:43:56.164Z,4.37
2023-04-15T17:45:37.479Z,4.49
2023-04-15T17:47:19.021Z,4.53
2023-04-15T17:49:00.608Z,4.56
2023-04-15T17:50:41.932Z,4.59
2023-04-15T17:52:23.292Z,4.63
2023-04-15T17:54:04.718Z,4.67
2023-04-15T17:55:46.185Z,4.49
2023-04-15T17:57:27.503Z,4.46
2023-04-15T17:59:08.981Z,4.44
2023-04-15T18:00:50.321Z,4.29
2023-04-15T18:02:32.757Z,4.39
2023-04-15T18:04:15.994Z,4.18
2023-04-15T18:05:57.341Z,4.36
2023-04-15T18:07:38.923Z,4.50
2023-04-15T18:09:20.448Z,4.22
2023-04-15T18:11:01.741Z,4.44
2023-04-15T18:12:43.044Z,4.44
2023-04-15T18:14:33.554Z,4.23
2023-04-15T18:16:16.176Z,4.14
2023-04-15T18:17:57.487Z,4.03
2023-04-15T18:19:38.796Z,4.08
2023-04-15T18:21:20.093Z,4.07
2023-04-15T18:23:01.447Z,4.09
2023-04-15T18:24:42.853Z,3.97
2023-04-15T18:26:24.140Z,3.71
2023-04-15T18:28:05.435Z,3.32
2023-04-15T18:29:46.756Z,3.49
2023-04-15T18:31:28.065Z,3.53
2023-04-15T18:33:09.400Z,3.73
2023-04-15T18:34:50.709Z,3.60
2023-04-15T18:36:31.988Z,3.45
2023-04-15T18:38:13.247Z,3.92
2023-04-15T18:39:54.551Z,3.70
2023-04-15T18:41:35.839Z,3.66
2023-04-15T18:43:17.136Z,3.75
2023-04-15T18:44:58.437Z,3.87
2023-04-15T18:46:39.718Z,3.74
2023-04-15T18:48:21.028Z,3.55
2023-04-15T18:50:02.487Z,3.33
2023-04-15T18:51:44.008Z,3.24
2023-04-15T18:53:25.381Z,3.30
2023-04-15T18:55:06.686Z,3.19
2023-04-15T18:56:48.022Z,3.52
2023-04-15T18:58:29.331Z,3.51
2023-04-15T19:00:30.633Z,3.18
2023-04-15T19:02:12.056Z,3.23
2023-04-15T19:03:53.510Z,3.20
2023-04-15T19:05:34.814Z,3.26
2023-04-15T19:07:16.121Z,2.98
2023-04-15T19:08:57.403Z,3.22
2023-04-15T19:10:38.685Z,2.87
2023-04-15T19:12:19.966Z,3.02
2023-04-15T19:14:01.251Z,2.74
2023-04-15T19:15:42.565Z,2.91
2023-04-15T19:17:23.901Z,3.21
2023-04-15T19:19:05.497Z,3.25
2023-04-15T19:20:46.878Z,3.18
2023-04-15T19:22:28.183Z,2.97
2023-04-15T19:24:09.519Z,3.02
2023-04-15T19:25:50.904Z,3.22
2023-04-15T19:27:32.223Z,3.12
2023-04-15T19:29:13.551Z,3.01
2023-04-15T19:30:54.957Z,3.27
2023-04-15T19:32:36.485Z,2.99
2023-04-15T19:34:17.818Z,3.24
2023-04-15T19:35:59.110Z,3.36
2023-04-15T19:37:40.378Z,3.23
2023-04-15T19:39:21.698Z,3.24
2023-04-15T19:41:03.024Z,3.42
2023-04-15T19:42:44.314Z,3.50
2023-04-15T19:44:25.630Z,3.40
2023-04-15T19:46:07.020Z,3.20
2023-04-15T19:47:48.392Z,3.07
2023-04-15T19:49:29.716Z,3.22
2023-04-15T19:51:11.029Z,3.30
2023-04-15T19:52:52.359Z,3.45
2023-04-15T19:54:33.688Z,3.57
2023-04-15T19:56:15.021Z,3.33
2023-04-15T19:57:56.334Z,3.49
2023-04-15T19:59:37.645Z,3.42
2023-04-15T20:01:19.029Z,3.41
2023-04-15T20:03:00.509Z,3.74
2023-04-15T20:04:42.029Z,3.69
2023-04-15T20:06:23.736Z,3.93
2023-04-15T20:08:05.075Z,3.72
2023-04-15T20:09:46.338Z,4.00
2023-04-15T20:11:27.640Z,4.21
2023-04-15T20:13:28.896Z,4.18
2023-04-15T20:15:10.198Z,4.14
2023-04-15T20:16:51.516Z,3.94
2023-04-15T20:18:32.826Z,3.62
2023-04-15T20:20:14.408Z,3.34
2023-04-15T20:21:55.734Z,3.36
2023-04-15T20:23:37.020Z,3.82
2023-04-15T20:25:18.329Z,4.05
2023-04-15T20:26:59.651Z,3.51
2023-04-15T20:28:40.927Z,3.50
2023-04-15T20:30:22.236Z,3.23
2023-04-15T20:32:04.480Z,3.52
2023-04-15T20:33:45.789Z,3.67
2023-04-15T20:35:27.285Z,3.95
2023-04-15T20:37:08.605Z,3.92
2023-04-15T20:38:49.866Z,3.34
2023-04-15T20:40:31.172Z,3.23
2023-04-15T20:42:12.481Z,3.14
2023-04-15T20:43:53.787Z,3.32
2023-04-15T20:45:35.075Z,3.28
2023-04-15T20:47:16.402Z,3.47
2023-04-15T20:48:57.757Z,3.33
2023-04-15T20:50:39.041Z,3.39
2023-04-15T20:52:20.314Z,3.61
2023-04-15T20:54:01.613Z,3.62
2023-04-15T20:55:42.879Z,3.47
2023-04-15T20:57:24.202Z,3.44
2023-04-15T20:59:05.686Z,2.79
2023-04-15T21:00:47.233Z,2.70
2023-04-15T21:02:28.695Z,2.53
2023-04-15T21:04:10.107Z,2.68
2023-04-15T21:05:51.400Z,2.56
2023-04-15T21:07:32.725Z,2.64
2023-04-15T21:09:14.018Z,2.87
2023-04-15T21:10:55.336Z,3.10
2023-04-15T21:12:36.634Z,3.03
2023-04-15T21:14:17.923Z,3.39
2023-04-15T21:15:59.271Z,3.42
2023-04-15T21:17:40.650Z,3.41
2023-04-15T21:19:21.944Z,3.59
2023-04-15T21:21:03.214Z,3.70
2023-04-15T21:22:44.519Z,3.78
2023-04-15T21:24:25.812Z,3.80
2023-04-15T21:26:07.108Z,3.59
2023-04-15T21:27:48.419Z,3.57
2023-04-15T21:29:29.745Z,3.56
2023-04-15T21:31:11.025Z,3.58
2023-04-15T21:32:52.364Z,3.02
2023-04-15T21:34:33.727Z,2.90
2023-04-15T21:36:15.018Z,3.04
2023-04-15T21:37:56.330Z,3.30
2023-04-15T21:39:37.602Z,3.38
2023-04-15T21:41:18.908Z,3.49
2023-04-15T21:43:00.282Z,3.43
2023-04-15T21:44:41.594Z,3.17
2023-04-15T21:46:25.726Z,3.34
2023-04-15T21:48:14.358Z,2.60
2023-04-15T21:49:55.703Z,2.25
2023-04-15T21:51:37.019Z,2.01
2023-04-15T21:53:18.300Z,1.80
2023-04-15T21:54:59.626Z,1.73
2023-04-15T21:56:40.905Z,2.07
2023-04-15T21:58:22.180Z,1.97
2023-04-15T22:00:03.483Z,2.22
2023-04-15T22:01:44.834Z,2.47
2023-04-15T22:03:26.285Z,2.63
2023-04-15T22:05:07.682Z,2.35
2023-04-15T22:06:48.991Z,2.22
2023-04-15T22:08:33.630Z,2.16
2023-04-15T22:10:19.767Z,2.30
2023-04-15T22:12:01.093Z,2.43
2023-04-15T22:13:42.372Z,2.44
2023-04-15T22:15:23.626Z,2.76
2023-04-15T22:17:04.991Z,2.87
2023-04-15T22:18:46.315Z,2.87
2023-04-15T22:20:27.664Z,2.61
2023-04-15T22:22:08.984Z,2.93
2023-04-15T22:23:50.294Z,2.97
2023-04-15T22:25:31.594Z,2.99
2023-04-15T22:27:12.924Z,2.83
2023-04-15T22:28:54.204Z,2.38
2023-04-15T22:30:35.474Z,2.49
2023-04-15T22:32:16.782Z,2.21